Time;durP1;ratioP1;P1;durP2;ratioP2;P2;SDS_P1;SDS_P2;PMS_P1;PMS_P2;Temp;Humidity;BMP_temperature;BMP_pressure;BME280_temperature;BME280_humidity;BME280_pressure;Samples;Min_cycle;Max_cycle;Signal;HPM_P1;HPM_P2
2022/07/25 00:01:46;;;;;;;9.52;2.97;;;;;;;14.49;100.00;97568.31;5065379;28;20032;-93
2022/07/25 00:04:13;;;;;;;9.38;2.83;;;;;;;14.59;100.00;97569.59;5065856;28;20391;-92
2022/07/25 00:06:39;;;;;;;13.13;3.20;;;;;;;14.53;100.00;97567.25;5053532;28;20083;-93
2022/07/25 00:09:05;;;;;;;12.20;3.10;;;;;;;14.60;100.00;97566.06;5044871;28;20047;-94
2022/07/25 00:11:31;;;;;;;14.27;3.22;;;;;;;14.70;100.00;97576.16;5044117;28;20021;-91
2022/07/25 00:13:56;;;;;;;14.15;3.80;;;;;;;14.75;100.00;97582.06;5050005;28;20124;-93
2022/07/25 00:16:22;;;;;;;11.05;3.38;;;;;;;14.85;100.00;97572.88;5049693;28;20037;-94
2022/07/25 00:18:47;;;;;;;13.15;3.25;;;;;;;15.37;100.00;97572.19;5047078;28;20082;-92
2022/07/25 00:21:13;;;;;;;15.10;3.78;;;;;;;14.80;100.00;97570.44;5047608;28;20028;-93
2022/07/25 00:23:39;;;;;;;12.25;3.47;;;;;;;14.79;100.00;97570.50;5045383;28;20016;-93
2022/07/25 00:26:05;;;;;;;13.60;3.47;;;;;;;16.17;100.00;97547.28;5046718;28;20851;-92
2022/07/25 00:28:30;;;;;;;13.45;3.33;;;;;;;16.25;100.00;97519.72;5080032;28;20032;-94
2022/07/25 00:30:57;;;;;;;13.90;3.45;;;;;;;15.74;100.00;97535.41;5047899;28;20021;-93
2022/07/25 00:33:23;;;;;;;11.00;3.35;;;;;;;16.73;100.00;97531.22;5083137;28;20060;-93
2022/07/25 00:35:48;;;;;;;11.55;3.40;;;;;;;14.94;100.00;97525.16;5051790;28;20109;-93
2022/07/25 00:38:15;;;;;;;11.48;3.53;;;;;;;14.82;100.00;97551.97;5045775;28;20045;-92
2022/07/25 00:40:41;;;;;;;16.95;4.00;;;;;;;15.15;100.00;97557.44;5045533;28;20036;-92
2022/07/25 00:43:09;;;;;;;13.73;3.53;;;;;;;14.80;100.00;97554.69;5060883;28;20479;-93
2022/07/25 00:45:35;;;;;;;11.60;3.65;;;;;;;15.32;100.00;97564.56;5049957;28;20028;-93
2022/07/25 00:48:07;;;;;;;14.90;3.72;;;;;;;15.30;100.00;97569.00;5042504;28;20029;-92
2022/07/25 00:50:33;;;;;;;14.63;3.97;;;;;;;14.81;100.00;97568.69;5050178;28;20072;-94
2022/07/25 00:52:58;;;;;;;13.70;3.35;;;;;;;14.57;100.00;97563.56;5064906;28;20029;-92
2022/07/25 00:55:24;;;;;;;11.00;3.33;;;;;;;14.61;100.00;97587.88;5049365;28;20048;-91
2022/07/25 00:57:50;;;;;;;14.80;3.92;;;;;;;14.58;100.00;97588.88;5046238;28;20024;-93
2022/07/25 01:00:16;;;;;;;15.85;3.90;;;;;;;14.63;100.00;97575.59;5049125;28;20473;-92
2022/07/25 01:02:43;;;;;;;16.95;5.10;;;;;;;14.60;100.00;97589.66;5055149;28;20063;-93
2022/07/25 01:05:09;;;;;;;15.23;4.03;;;;;;;14.52;100.00;97582.13;5050244;28;20390;-93
2022/07/25 01:07:39;;;;;;;14.57;3.70;;;;;;;14.54;100.00;97579.44;5050481;28;20824;-93
2022/07/25 01:10:07;;;;;;;13.68;3.22;;;;;;;14.58;100.00;97575.75;5081743;28;20039;-94
2022/07/25 01:12:50;;;;;;;10.20;3.03;;;;;;;14.51;100.00;97574.31;5051876;28;20048;-93
2022/07/25 01:15:17;;;;;;;17.67;3.58;;;;;;;14.89;100.00;97574.44;5080005;28;20024;-92
2022/07/25 01:17:43;;;;;;;13.55;3.58;;;;;;;15.05;100.00;97571.09;5050094;28;20050;-92
2022/07/25 01:20:16;;;;;;;10.48;3.40;;;;;;;16.42;100.00;97553.03;5053724;28;20035;-93
2022/07/25 01:22:43;;;;;;;13.20;3.15;;;;;;;15.60;100.00;97517.69;5049279;28;20473;-92
2022/07/25 01:25:13;;;;;;;13.95;3.30;;;;;;;14.91;100.00;97520.06;5048863;28;20032;-93
2022/07/25 01:27:39;;;;;;;12.25;2.90;;;;;;;14.78;100.00;97537.28;5075904;28;20117;-92
2022/07/25 01:30:07;;;;;;;17.50;3.55;;;;;;;15.90;100.00;97533.75;5050296;28;20119;-93
2022/07/25 01:32:40;;;;;;;11.07;2.88;;;;;;;14.85;100.00;97525.63;5054959;28;20791;-94
2022/07/25 01:35:07;;;;;;;9.70;2.88;;;;;;;15.22;100.00;97509.91;5044900;28;20119;-92
2022/07/25 01:37:33;;;;;;;13.00;3.28;;;;;;;15.23;100.00;97487.97;5051000;28;20509;-94
2022/07/25 01:39:59;;;;;;;13.50;3.08;;;;;;;16.33;100.00;97483.34;5047511;28;20033;-94
2022/07/25 01:42:27;;;;;;;12.05;3.33;;;;;;;16.12;100.00;97467.75;5047922;28;20032;-92
2022/07/25 01:44:52;;;;;;;13.73;3.67;;;;;;;16.26;100.00;97451.25;5048857;28;20390;-92
2022/07/25 01:47:18;;;;;;;15.57;3.53;;;;;;;16.35;100.00;97445.50;5050174;28;20028;-92
2022/07/25 01:49:44;;;;;;;11.23;2.92;;;;;;;16.45;100.00;97447.63;5052739;28;20055;-94
2022/07/25 01:52:10;;;;;;;10.77;2.88;;;;;;;16.37;100.00;97441.00;5047453;28;20025;-93
2022/07/25 01:54:39;;;;;;;11.30;3.47;;;;;;;16.19;100.00;97441.97;5047161;28;20105;-92
2022/07/25 01:57:08;;;;;;;12.85;3.03;;;;;;;16.07;100.00;97445.25;5066314;28;20025;-93
2022/07/25 01:59:39;;;;;;;10.32;3.53;;;;;;;17.11;100.00;97437.91;5042868;28;20029;-93
2022/07/25 02:02:06;;;;;;;10.93;3.65;;;;;;;16.12;100.00;97430.09;5044409;28;20045;-92
2022/07/25 02:04:33;;;;;;;12.52;3.13;;;;;;;15.85;100.00;97414.81;5051951;28;20378;-93
2022/07/25 02:06:58;;;;;;;11.40;2.83;;;;;;;15.80;100.00;97416.84;5049312;28;20140;-94
2022/07/25 02:09:24;;;;;;;13.88;3.25;;;;;;;15.23;100.00;97411.81;5043475;28;20077;-93
2022/07/25 02:11:49;;;;;;;10.02;2.88;;;;;;;14.86;100.00;97435.44;5046504;28;20032;-91
2022/07/25 02:14:15;;;;;;;14.13;3.03;;;;;;;15.86;100.00;97424.41;5045794;28;20078;-92
2022/07/25 02:16:40;;;;;;;9.73;2.95;;;;;;;15.82;100.00;97397.44;5043570;28;20085;-93
2022/07/25 02:19:09;;;;;;;10.82;2.75;;;;;;;15.95;100.00;97388.88;5048149;28;20037;-92
2022/07/25 02:21:34;;;;;;;11.60;2.70;;;;;;;15.41;100.00;97387.22;5044746;28;20732;-92
2022/07/25 02:24:00;;;;;;;12.55;2.90;;;;;;;14.52;100.00;97403.72;5047614;28;20025;-93
2022/07/25 02:26:25;;;;;;;12.32;3.17;;;;;;;15.21;100.00;97401.34;5046102;28;20036;-93
2022/07/25 02:28:51;;;;;;;11.27;2.67;;;;;;;14.74;100.00;97392.25;5043292;28;20059;-93
2022/07/25 02:31:17;;;;;;;13.93;2.90;;;;;;;15.07;100.00;97396.78;5047628;28;20029;-94
2022/07/25 02:33:43;;;;;;;11.95;2.70;;;;;;;15.42;100.00;97388.06;5049441;28;20037;-93
2022/07/25 02:36:09;;;;;;;14.15;2.85;;;;;;;14.95;100.00;97382.50;5047592;28;20040;-92
2022/07/25 02:38:35;;;;;;;12.25;2.80;;;;;;;15.11;100.00;97400.13;5046990;28;20135;-92
2022/07/25 02:41:00;;;;;;;10.45;2.53;;;;;;;15.08;100.00;97392.41;5048363;28;20529;-93
2022/07/25 02:43:26;;;;;;;12.63;2.90;;;;;;;15.11;100.00;97393.06;5048753;28;20460;-93
2022/07/25 02:45:52;;;;;;;9.07;2.75;;;;;;;15.02;100.00;97394.38;5045415;28;20397;-92
2022/07/25 02:48:18;;;;;;;11.48;2.78;;;;;;;15.16;100.00;97385.00;5061083;28;20032;-91
2022/07/25 02:50:44;;;;;;;12.43;3.10;;;;;;;15.14;100.00;97390.31;5066735;28;20032;-92
2022/07/25 02:53:09;;;;;;;11.40;2.65;;;;;;;14.98;100.00;97395.47;5045743;28;20025;-93
2022/07/25 02:55:35;;;;;;;11.02;2.65;;;;;;;14.50;100.00;97416.09;5044376;28;20040;-92
2022/07/25 02:58:00;;;;;;;11.05;2.92;;;;;;;15.01;100.00;97405.81;5048601;28;20037;-92
2022/07/25 03:00:26;;;;;;;9.77;2.63;;;;;;;15.10;100.00;97409.78;5048424;28;21826;-93
2022/07/25 03:02:52;;;;;;;10.85;2.70;;;;;;;14.97;100.00;97422.63;5051872;28;20047;-92
2022/07/25 03:05:17;;;;;;;11.77;2.75;;;;;;;14.94;100.00;97427.19;5048887;28;20436;-92
2022/07/25 03:08:08;;;;;;;8.95;2.50;;;;;;;15.08;100.00;97426.53;5048261;28;20028;-92
2022/07/25 03:10:35;;;;;;;9.73;2.53;;;;;;;15.00;100.00;97429.50;5046457;28;20028;-90
2022/07/25 03:13:01;;;;;;;12.10;2.88;;;;;;;14.91;100.00;97424.72;5049876;28;20043;-93
2022/07/25 03:15:27;;;;;;;9.85;2.38;;;;;;;14.80;100.00;97418.19;5044151;28;20487;-93
2022/07/25 03:17:52;;;;;;;10.18;2.47;;;;;;;15.09;100.00;97413.31;5045622;28;20494;-92
2022/07/25 03:20:18;;;;;;;9.45;2.38;;;;;;;15.14;100.00;97400.84;5050113;28;20028;-92
2022/07/25 03:22:43;;;;;;;8.60;2.63;;;;;;;15.21;100.00;97385.59;5044578;28;20036;-92
2022/07/25 03:25:09;;;;;;;12.50;2.78;;;;;;;15.25;100.00;97387.16;5048813;28;20389;-93
2022/07/25 03:27:38;;;;;;;11.68;2.58;;;;;;;14.23;100.00;97407.69;5053088;28;20032;-93
2022/07/25 03:30:04;;;;;;;11.02;2.63;;;;;;;14.19;100.00;97421.88;5077364;28;20033;-92
2022/07/25 03:32:30;;;;;;;12.65;3.13;;;;;;;14.21;100.00;97445.41;5049547;28;20709;-93
2022/07/25 03:34:56;;;;;;;13.55;3.20;;;;;;;14.26;100.00;97461.78;5049163;28;20033;-92
2022/07/25 03:37:21;;;;;;;10.65;2.40;;;;;;;14.45;100.00;97462.66;5046359;28;20036;-92
2022/07/25 03:39:48;;;;;;;12.73;2.83;;;;;;;14.25;100.00;97466.19;5048968;28;20112;-93
2022/07/25 03:42:14;;;;;;;12.70;2.78;;;;;;;14.17;100.00;97455.19;5050101;28;20432;-93
2022/07/25 03:44:39;;;;;;;8.40;2.55;;;;;;;14.59;100.00;97461.19;5051233;28;20021;-93
2022/07/25 03:47:05;;;;;;;9.98;2.83;;;;;;;14.68;100.00;97458.13;5052889;28;20182;-92
2022/07/25 03:49:30;;;;;;;11.07;2.80;;;;;;;14.70;100.00;97431.81;5051842;28;20489;-92
2022/07/25 03:51:59;;;;;;;10.90;2.72;;;;;;;14.25;100.00;97434.72;5050395;28;20039;-93
2022/07/25 03:54:24;;;;;;;10.55;2.65;;;;;;;14.25;100.00;97447.84;5091666;28;20053;-95
2022/07/25 03:56:50;;;;;;;12.98;3.05;;;;;;;14.30;100.00;97434.50;5056676;28;20024;-93
2022/07/25 03:59:19;;;;;;;9.02;2.45;;;;;;;14.24;100.00;97422.53;5054657;28;20028;-92
2022/07/25 04:01:47;;;;;;;9.32;2.65;;;;;;;14.21;100.00;97419.19;5046974;28;20201;-91
2022/07/25 04:04:13;;;;;;;7.88;2.33;;;;;;;14.21;100.00;97419.19;5049687;28;20094;-93
2022/07/25 04:06:39;;;;;;;11.93;2.83;;;;;;;14.14;100.00;97427.34;5050247;28;20037;-92
2022/07/25 04:09:08;;;;;;;8.18;2.47;;;;;;;14.18;100.00;97446.38;5052273;28;20024;-95
2022/07/25 04:11:34;;;;;;;11.07;2.30;;;;;;;14.13;100.00;97440.50;5083675;28;20477;-93
2022/07/25 04:14:01;;;;;;;8.35;2.50;;;;;;;14.24;100.00;97437.41;5049580;28;20029;-93
2022/07/25 04:16:28;;;;;;;8.43;2.55;;;;;;;14.18;100.00;97441.13;5045880;28;20033;-93
2022/07/25 04:18:56;;;;;;;9.90;2.05;;;;;;;14.12;100.00;97437.03;5052779;28;20028;-93
2022/07/25 04:21:22;;;;;;;9.23;2.47;;;;;;;14.06;100.00;97441.72;5049226;28;20048;-93
2022/07/25 04:23:48;;;;;;;7.82;2.30;;;;;;;14.02;100.00;97438.34;5056100;28;20039;-93
2022/07/25 04:26:15;;;;;;;12.23;2.30;;;;;;;13.98;100.00;97437.63;5054973;28;20021;-93
2022/07/25 04:28:41;;;;;;;8.98;2.05;;;;;;;14.03;100.00;97421.72;5055352;28;20032;-92
2022/07/25 04:31:41;;;;;;;10.80;2.00;;;;;;;13.92;100.00;97408.25;5048518;28;20025;-93
2022/07/25 04:34:09;;;;;;;9.32;2.08;;;;;;;13.93;100.00;97423.91;5045896;28;20036;-94
2022/07/25 04:36:35;;;;;;;7.97;2.03;;;;;;;13.80;100.00;97409.63;5065566;28;20029;-93
2022/07/25 04:39:00;;;;;;;7.43;2.05;;;;;;;13.82;100.00;97413.03;5080849;28;20033;-92
2022/07/25 04:41:26;;;;;;;9.70;2.38;;;;;;;13.80;100.00;97422.72;5053188;28;20056;-94
2022/07/25 04:43:51;;;;;;;9.40;2.20;;;;;;;13.76;100.00;97424.63;5055078;28;20097;-94
2022/07/25 04:46:19;;;;;;;7.55;2.05;;;;;;;13.77;100.00;97430.72;5055521;28;20034;-93
2022/07/25 04:52:33;;;;;;;10.48;1.83;;;;;;;14.25;100.00;97439.97;5049503;28;20119;-92
2022/07/25 04:54:58;;;;;;;7.90;1.90;;;;;;;14.44;100.00;97439.13;5046222;28;20041;-92
2022/07/25 04:57:24;;;;;;;8.65;2.05;;;;;;;14.17;100.00;97426.34;5053000;28;20047;-93
2022/07/25 04:59:49;;;;;;;7.47;1.92;;;;;;;14.57;100.00;97419.28;5048540;28;20077;-93
2022/07/25 05:02:15;;;;;;;6.60;1.75;;;;;;;14.09;100.00;97420.59;5060717;28;20047;-93
2022/07/25 05:04:41;;;;;;;7.53;1.80;;;;;;;14.18;100.00;97404.44;5041182;28;20110;-93
2022/07/25 05:07:06;;;;;;;7.05;1.80;;;;;;;14.25;100.00;97420.75;5042434;28;20112;-92
2022/07/25 05:09:32;;;;;;;8.32;2.10;;;;;;;14.23;100.00;97433.91;5043603;28;20033;-92
2022/07/25 05:11:57;;;;;;;6.18;1.65;;;;;;;14.19;100.00;97427.13;5045992;28;20055;-92
2022/07/25 05:14:23;;;;;;;6.82;1.67;;;;;;;14.17;100.00;97435.06;5048986;28;20032;-93
2022/07/25 05:16:48;;;;;;;9.73;2.10;;;;;;;14.09;100.00;97431.06;5044620;28;20044;-92
2022/07/25 05:19:14;;;;;;;9.65;2.20;;;;;;;15.94;100.00;97443.25;5051829;28;20032;-93
2022/07/25 05:21:43;;;;;;;8.00;1.65;;;;;;;14.16;100.00;97419.38;5042991;28;20028;-93
2022/07/25 05:24:08;;;;;;;9.52;1.73;;;;;;;14.23;100.00;97428.69;5048201;28;20063;-92
2022/07/25 05:26:34;;;;;;;5.40;1.60;;;;;;;14.18;100.00;97430.66;5084093;28;20110;-93
2022/07/25 05:29:01;;;;;;;6.28;1.52;;;;;;;14.62;100.00;97424.28;5052019;28;20202;-92
2022/07/25 05:31:27;;;;;;;8.27;2.10;;;;;;;14.38;100.00;97413.16;5044039;28;20056;-93
2022/07/25 05:33:52;;;;;;;7.28;1.80;;;;;;;14.39;100.00;97418.34;5045618;28;20053;-92
2022/07/25 05:36:18;;;;;;;5.88;1.73;;;;;;;14.31;100.00;97420.47;5043812;28;20036;-91
2022/07/25 05:38:44;;;;;;;6.72;1.55;;;;;;;14.52;100.00;97429.97;5054235;28;20110;-93
2022/07/25 05:41:12;;;;;;;8.35;2.22;;;;;;;14.59;100.00;97382.47;5048006;28;20029;-92
2022/07/25 05:43:38;;;;;;;9.02;2.30;;;;;;;14.56;100.00;97399.19;5056294;28;20112;-92
2022/07/25 05:46:04;;;;;;;10.18;2.05;;;;;;;14.66;100.00;97410.16;5053232;28;20189;-93
2022/07/25 05:48:30;;;;;;;6.32;1.60;;;;;;;14.82;100.00;97419.00;5048750;28;20592;-92
2022/07/25 05:50:58;;;;;;;8.10;1.80;;;;;;;14.82;100.00;97412.88;5045664;28;20484;-93
2022/07/25 05:53:24;;;;;;;7.72;1.88;;;;;;;14.72;100.00;97425.59;5054194;28;20178;-92
2022/07/25 05:55:50;;;;;;;7.95;2.30;;;;;;;15.08;100.00;97416.03;5047224;28;20120;-93
2022/07/25 05:58:16;;;;;;;7.63;1.90;;;;;;;14.63;100.00;97426.88;5045156;28;20146;-93
2022/07/25 06:00:41;;;;;;;10.02;2.30;;;;;;;14.31;100.00;97528.00;5048400;28;20096;-93
2022/07/25 06:03:07;;;;;;;8.02;2.00;;;;;;;14.27;100.00;97534.28;5042525;28;20029;-93
2022/07/25 06:05:33;;;;;;;7.90;2.20;;;;;;;14.43;100.00;97530.09;5049244;28;20600;-93
2022/07/25 06:07:58;;;;;;;9.57;2.10;;;;;;;14.78;100.00;97513.69;5048742;28;20033;-93
2022/07/25 06:10:24;;;;;;;8.60;1.88;;;;;;;14.38;100.00;97500.56;5053178;28;20029;-92
2022/07/25 06:12:49;;;;;;;9.23;2.10;;;;;;;14.39;100.00;97483.06;5051111;28;20028;-93
2022/07/25 06:15:15;;;;;;;7.13;1.73;;;;;;;14.38;100.00;97484.84;5043178;28;20032;-92
2022/07/25 06:17:41;;;;;;;8.55;2.00;;;;;;;14.52;100.00;97476.34;5049619;28;20037;-93
2022/07/25 06:20:17;;;;;;;8.20;1.98;;;;;;;14.51;100.00;97464.13;5051161;28;20445;-93
2022/07/25 06:22:43;;;;;;;8.13;2.13;;;;;;;14.29;100.00;97470.38;5043588;28;20122;-93
2022/07/25 06:25:11;;;;;;;7.55;1.98;;;;;;;14.36;100.00;97485.81;5052549;28;20066;-95
2022/07/25 06:27:37;;;;;;;7.80;1.80;;;;;;;14.36;100.00;97485.81;5045680;28;20116;-95
2022/07/25 06:30:04;;;;;;;6.50;1.88;;;;;;;14.13;100.00;97498.19;5048518;28;20119;-95
2022/07/25 06:32:29;;;;;;;7.25;1.90;;;;;;;14.38;100.00;97502.31;5049771;28;20089;-94
2022/07/25 06:34:55;;;;;;;9.70;2.42;;;;;;;14.15;100.00;97498.97;5045086;28;20473;-93
2022/07/25 06:37:20;;;;;;;8.15;2.13;;;;;;;14.40;100.00;97498.72;5049570;28;20040;-94
2022/07/25 06:39:46;;;;;;;6.80;1.90;;;;;;;14.31;100.00;97500.00;5057385;28;20023;-93
2022/07/25 06:42:12;;;;;;;7.20;1.90;;;;;;;14.25;100.00;97500.28;5049492;28;20064;-94
2022/07/25 06:44:37;;;;;;;6.38;1.85;;;;;;;14.28;100.00;97505.38;5051536;28;20497;-94
2022/07/25 06:47:04;;;;;;;7.57;2.35;;;;;;;14.25;100.00;97507.28;5076675;28;20021;-93
2022/07/25 06:49:30;;;;;;;9.07;2.10;;;;;;;14.36;100.00;97507.66;5055143;28;20037;-93
2022/07/25 06:51:56;;;;;;;8.60;2.22;;;;;;;14.30;100.00;97519.25;5050200;28;20029;-94
2022/07/25 06:54:21;;;;;;;8.93;2.42;;;;;;;14.28;100.00;97520.25;5046889;28;20094;-94
2022/07/25 06:56:47;;;;;;;7.10;2.00;;;;;;;14.41;100.00;97515.31;5048340;28;20106;-94
2022/07/25 06:59:13;;;;;;;6.93;1.85;;;;;;;14.37;100.00;97527.72;5058446;28;20047;-95
2022/07/25 07:01:38;;;;;;;8.45;1.73;;;;;;;14.45;100.00;97532.63;5050985;28;20206;-93
2022/07/25 07:07:26;;;;;;;6.40;1.67;;;;;;;14.30;100.00;97521.88;5051767;28;20091;-94
2022/07/25 07:09:52;;;;;;;6.25;2.10;;;;;;;14.00;100.00;97537.16;5045817;28;20029;-94
2022/07/25 07:12:17;;;;;;;6.90;2.08;;;;;;;13.90;100.00;97552.44;5077996;28;20029;-94
2022/07/25 07:14:44;;;;;;;6.90;2.17;;;;;;;13.65;100.00;97560.47;5047610;28;20112;-94
2022/07/25 07:17:10;;;;;;;7.57;2.40;;;;;;;13.71;100.00;97582.94;5056936;28;20094;-94
2022/07/25 07:19:42;;;;;;;7.43;2.40;;;;;;;13.72;100.00;97595.13;5058627;28;20029;-93
2022/07/25 07:22:08;;;;;;;7.70;2.30;;;;;;;13.73;100.00;97615.19;5050798;28;20037;-93
2022/07/25 07:24:33;;;;;;;6.65;2.05;;;;;;;13.85;100.00;97627.78;5054145;28;20036;-94
2022/07/25 07:27:00;;;;;;;7.70;1.92;;;;;;;13.92;100.00;97600.41;5056782;28;20413;-95
2022/07/25 07:29:27;;;;;;;7.30;2.40;;;;;;;13.82;100.00;97607.81;5052295;28;20094;-94
2022/07/25 07:31:52;;;;;;;7.75;2.72;;;;;;;13.62;100.00;97598.09;5090325;28;20489;-94
2022/07/25 07:34:19;;;;;;;8.50;3.03;;;;;;;13.78;100.00;97608.84;5054198;28;20033;-93
2022/07/25 07:36:44;;;;;;;8.23;3.00;;;;;;;14.33;100.00;97615.31;5051918;28;20025;-94
2022/07/25 07:39:10;;;;;;;13.15;5.70;;;;;;;14.07;100.00;97603.31;5054883;28;20078;-94
2022/07/25 07:41:37;;;;;;;10.38;5.63;;;;;;;14.32;100.00;97603.13;5052861;28;20036;-95
2022/07/25 07:44:04;;;;;;;8.25;4.30;;;;;;;14.38;100.00;97587.13;5072688;28;20500;-94
2022/07/25 07:46:30;;;;;;;9.05;4.65;;;;;;;14.45;100.00;97587.72;5051274;28;20038;-94
2022/07/25 07:48:55;;;;;;;10.88;6.13;;;;;;;14.87;100.00;97580.66;5054576;28;20036;-92
2022/07/25 07:51:24;;;;;;;12.15;5.82;;;;;;;14.94;100.00;97568.97;5079499;28;20045;-94
2022/07/25 07:56:34;;;;;;;11.80;6.13;;;;;;;15.26;100.00;97535.94;5055155;28;20062;-94
2022/07/25 07:59:00;;;;;;;12.82;7.50;;;;;;;14.89;100.00;97524.56;5050202;28;20033;-94
2022/07/25 08:01:25;;;;;;;12.18;6.75;;;;;;;15.41;100.00;97529.09;5048670;28;20033;-91
2022/07/25 08:03:51;;;;;;;12.80;7.70;;;;;;;15.05;100.00;97521.22;5052632;28;20033;-95
2022/07/25 08:06:17;;;;;;;14.35;7.57;;;;;;;15.02;100.00;97533.53;5053845;28;20048;-94
2022/07/25 08:08:43;;;;;;;12.70;7.40;;;;;;;15.78;100.00;97526.44;5052542;28;21698;-94
2022/07/25 08:11:12;;;;;;;12.90;7.28;;;;;;;15.40;100.00;97519.50;5050614;28;20058;-94
2022/07/25 08:13:38;;;;;;;12.82;7.47;;;;;;;15.06;100.00;97536.03;5049265;28;20093;-94
2022/07/25 08:16:04;;;;;;;12.10;7.40;;;;;;;14.78;100.00;97543.41;5053513;28;20533;-95
2022/07/25 08:18:31;;;;;;;11.65;5.97;;;;;;;14.88;100.00;97561.34;5053281;28;20265;-94
2022/07/25 08:20:58;;;;;;;10.23;5.57;;;;;;;15.26;100.00;97564.81;5048924;28;20059;-94
2022/07/25 08:23:26;;;;;;;10.75;5.70;;;;;;;15.34;100.00;97554.81;5046292;28;20496;-95
2022/07/25 08:34:02;;;;;;;12.52;6.90;;;;;;;15.52;100.00;97512.81;2381572;23;20446;-96
2022/07/25 08:36:28;;;;;;;11.43;6.80;;;;;;;15.34;100.00;97504.91;4910835;29;20044;-96
2022/07/25 08:38:56;;;;;;;12.70;6.32;;;;;;;15.15;100.00;97501.47;4915892;29;20051;-96
2022/07/25 08:41:22;;;;;;;13.07;6.85;;;;;;;15.55;100.00;97511.81;4915437;29;20024;-96
2022/07/25 08:43:48;;;;;;;13.88;7.00;;;;;;;17.32;100.00;97502.53;4913443;29;20031;-94
2022/07/25 08:46:18;;;;;;;11.00;5.97;;;;;;;15.28;100.00;97484.19;4912372;29;20095;-94
2022/07/25 08:48:44;;;;;;;10.60;5.97;;;;;;;16.00;100.00;97466.59;4910832;29;20036;-96
2022/07/25 08:51:10;;;;;;;11.35;5.65;;;;;;;15.69;100.00;97470.75;4931129;29;20035;-95
2022/07/25 08:53:38;;;;;;;10.38;4.90;;;;;;;16.96;100.00;97442.25;4916433;29;20915;-96
2022/07/25 08:56:04;;;;;;;10.88;4.60;;;;;;;17.43;100.00;97414.94;4930186;29;20095;-95
2022/07/25 08:58:30;;;;;;;10.23;4.95;;;;;;;17.31;100.00;97434.94;4914916;29;20127;-96
2022/07/25 09:00:57;;;;;;;10.05;5.28;;;;;;;17.27;100.00;97425.56;4915368;29;20032;-94
2022/07/25 09:03:23;;;;;;;8.75;4.70;;;;;;;17.53;100.00;97425.81;4916553;29;20031;-96
2022/07/25 09:05:48;;;;;;;11.25;5.00;;;;;;;17.13;100.00;97450.06;4916659;29;20028;-96
2022/07/25 09:08:16;;;;;;;8.85;4.72;;;;;;;16.79;100.00;97464.22;4914208;29;20503;-96
2022/07/25 09:10:50;;;;;;;9.73;4.82;;;;;;;17.07;100.00;97460.91;4930419;29;20047;-96
2022/07/25 09:13:17;;;;;;;8.48;4.22;;;;;;;16.34;100.00;97456.94;4909239;29;20040;-95
2022/07/25 09:15:55;;;;;;;8.05;4.00;;;;;;;16.92;100.00;97475.78;4895837;29;20047;-95
2022/07/25 09:18:26;;;;;;;9.32;4.13;;;;;;;17.51;100.00;97462.81;4890279;29;20044;-96
2022/07/25 09:20:53;;;;;;;7.82;3.92;;;;;;;18.27;100.00;97458.34;4912224;29;20028;-94
2022/07/25 09:23:32;;;;;;;9.65;3.70;;;;;;;17.47;100.00;97440.19;4909704;29;20104;-94
2022/07/25 09:26:09;;;;;;;7.93;3.90;;;;;;;17.45;100.00;97443.84;4891500;29;20064;-95
2022/07/25 09:28:46;;;;;;;6.95;3.28;;;;;;;16.57;100.00;97456.63;4910768;29;20044;-94
2022/07/25 09:31:12;;;;;;;10.23;3.40;;;;;;;16.69;100.00;97451.53;4894745;29;20028;-94
2022/07/25 09:33:50;;;;;;;7.53;3.13;;;;;;;16.93;100.00;97479.28;4894140;29;20099;-94
2022/07/25 09:36:17;;;;;;;8.85;3.58;;;;;;;17.08;100.00;97482.81;4893809;29;20146;-96
2022/07/25 09:38:56;;;;;;;7.45;3.35;;;;;;;16.99;100.00;97486.84;4895802;29;20107;-95
2022/07/25 09:41:33;;;;;;;6.72;3.22;;;;;;;17.29;100.00;97504.50;4892798;29;20595;-92
2022/07/25 09:43:58;;;;;;;6.85;2.70;;;;;;;16.99;100.00;97498.25;4899053;29;20040;-94
2022/07/25 09:46:30;;;;;;;6.05;2.30;;;;;;;18.78;100.00;97457.84;4911994;29;20546;-94
2022/07/25 09:48:58;;;;;;;6.00;2.20;;;;;;;18.31;100.00;97605.00;4926897;29;20035;-94
2022/07/25 09:51:27;;;;;;;6.13;2.50;;;;;;;18.07;100.00;97526.34;4908191;29;20032;-93
2022/07/25 09:53:53;;;;;;;7.90;2.42;;;;;;;16.67;100.00;97552.59;4910540;29;20031;-94
2022/07/25 09:56:18;;;;;;;7.72;2.80;;;;;;;17.22;100.00;97565.44;4911750;29;20028;-95
2022/07/25 09:58:44;;;;;;;6.75;2.70;;;;;;;18.65;100.00;97566.03;4911434;29;20035;-96
2022/07/25 10:01:16;;;;;;;6.00;2.45;;;;;;;17.34;100.00;97608.72;4908975;29;20044;-95
2022/07/25 10:03:52;;;;;;;6.95;2.50;;;;;;;16.11;100.00;97644.88;4922756;29;20036;-95
2022/07/25 10:06:33;;;;;;;6.65;2.80;;;;;;;17.55;100.00;97624.25;4911342;29;20072;-96
2022/07/25 10:08:59;;;;;;;6.70;2.85;;;;;;;18.00;100.00;97630.56;4909843;29;20035;-95
2022/07/25 10:11:26;;;;;;;6.03;1.77;;;;;;;19.22;100.00;97580.16;4912164;29;20031;-96
2022/07/25 10:13:53;;;;;;;4.03;1.20;;;;;;;17.80;100.00;97546.41;4909329;29;20074;-96
2022/07/25 10:16:22;;;;;;;6.43;1.23;;;;;;;18.61;100.00;97527.56;4910477;29;20054;-95
2022/07/25 10:18:56;;;;;;;3.05;0.90;;;;;;;19.87;100.00;97500.16;4906556;29;20035;-96
2022/07/25 10:21:23;;;;;;;3.85;1.00;;;;;;;18.01;100.00;97537.28;4911899;29;20479;-96
2022/07/25 10:24:09;;;;;;;2.38;0.75;;;;;;;16.69;100.00;97554.22;4909717;29;20326;-95
2022/07/25 10:26:50;;;;;;;3.60;1.10;;;;;;;16.89;100.00;97603.19;4910519;29;20119;-96
2022/07/25 10:29:16;;;;;;;3.75;1.05;;;;;;;17.37;100.00;97608.53;4909711;29;20223;-96
2022/07/25 10:31:44;;;;;;;2.78;0.82;;;;;;;18.67;100.00;97572.06;4909483;29;20122;-96
2022/07/25 10:34:41;;;;;;;4.70;1.10;;;;;;;19.76;100.00;97542.31;4911474;29;20048;-96
2022/07/25 10:37:14;;;;;;;2.20;0.80;;;;;;;18.90;100.00;97507.28;4885125;29;20060;-96
2022/07/25 10:39:47;;;;;;;5.57;1.20;;;;;;;18.53;100.00;97521.91;4892105;29;20028;-96
2022/07/25 10:42:20;;;;;;;4.93;1.35;;;;;;;19.43;100.00;97514.53;4894767;29;20037;-96
2022/07/25 10:44:56;;;;;;;6.00;1.38;;;;;;;19.07;100.00;97514.13;4894077;29;20024;-96
2022/07/25 10:47:25;;;;;;;4.28;1.20;;;;;;;18.22;100.00;97529.88;4898309;29;20032;-96
2022/07/25 10:50:21;;;;;;;5.15;1.30;;;;;;;19.18;100.00;97509.94;4894570;29;20025;-96
2022/07/25 10:52:58;;;;;;;8.93;1.45;;;;;;;19.59;100.00;97498.47;4894217;29;20079;-96
2022/07/25 10:55:26;;;;;;;5.60;1.40;;;;;;;19.12;100.00;97510.34;4893892;29;20084;-96
2022/07/25 10:58:05;;;;;;;4.07;1.40;;;;;;;18.69;100.00;97522.66;4907591;29;20039;-95
2022/07/25 11:00:32;;;;;;;5.93;1.45;;;;;;;19.08;100.00;97560.75;4892529;29;20029;-96
2022/07/25 11:02:59;;;;;;;5.40;1.40;;;;;;;17.40;100.00;97578.53;4893353;29;20081;-96
2022/07/25 11:05:30;;;;;;;4.25;1.10;;;;;;;16.66;100.00;97614.06;4913839;29;20041;-96
2022/07/25 11:08:00;;;;;;;2.67;0.82;;;;;;;16.68;100.00;97636.75;4903817;29;20032;-96
2022/07/25 11:10:26;;;;;;;3.50;1.00;;;;;;;17.75;100.00;97639.81;4923991;29;20032;-95
2022/07/25 11:18:57;;;;;;;4.22;0.98;;;;;;;19.60;100.00;97550.44;5206817;23;20069;-92
2022/07/25 11:21:23;;;;;;;6.22;1.23;;;;;;;19.66;100.00;97550.03;4850695;29;20042;-93
2022/07/25 11:23:52;;;;;;;3.88;1.00;;;;;;;18.59;100.00;97545.28;4842774;29;20116;-94
2022/07/25 11:26:18;;;;;;;4.85;1.30;;;;;;;18.10;100.00;97559.63;4839740;29;20281;-92
2022/07/25 11:28:49;;;;;;;4.75;1.20;;;;;;;18.12;100.00;97564.81;4846315;29;20033;-95
2022/07/25 11:31:17;;;;;;;4.63;1.13;;;;;;;17.78;100.00;97582.59;4847840;29;20037;-96
2022/07/25 11:33:47;;;;;;;5.93;1.60;;;;;;;17.93;100.00;97571.19;4846869;29;20064;-94
2022/07/25 11:36:13;;;;;;;7.32;1.70;;;;;;;18.81;100.00;97551.88;4849130;29;20137;-95
2022/07/25 11:38:39;;;;;;;6.63;1.38;;;;;;;18.89;100.00;97542.56;4845792;29;20124;-95
2022/07/25 11:41:06;;;;;;;4.70;1.42;;;;;;;20.57;100.00;97521.91;4847664;29;20089;-95
2022/07/25 11:43:32;;;;;;;6.70;1.67;;;;;;;19.07;100.00;97535.28;4846508;29;20033;-95
2022/07/25 11:46:06;;;;;;;8.35;1.80;;;;;;;19.07;100.00;97522.06;4850571;29;20034;-96
2022/07/25 11:48:36;;;;;;;5.93;1.60;;;;;;;19.28;100.00;97545.44;4844283;29;20037;-94